sensor_id;sensor_type;location;lat;lon;timestamp;pressure;altitude;pressure_sealevel;temperature;humidity
44309;BME280;30022;55.846;37.340;2023-03-14T00:01:45;46861.09;;;-143.51;100.00
44309;BME280;30022;55.846;37.340;2023-03-14T00:04:11;46813.72;;;-143.51;100.00
44309;BME280;30022;55.846;37.340;2023-03-14T00:06:36;46803.84;;;-143.51;100.00
44309;BME280;30022;55.846;37.340;2023-03-14T00:09:02;46819.63;;;-143.51;100.00
44309;BME280;30022;55.846;37.340;2023-03-14T00:11:28;46809.75;;;-143.51;100.00
44309;BME280;30022;55.846;37.340;2023-03-14T00:13:55;46807.78;;;-143.51;100.00
44309;BME280;30022;55.846;37.340;2023-03-14T00:16:20;46805.81;;;-143.51;100.00
44309;BME280;30022;55.846;37.340;2023-03-14T00:18:46;46865.06;;;-143.51;100.00
44309;BME280;30022;55.846;37.340;2023-03-14T00:21:12;46863.09;;;-143.51;100.00
44309;BME280;30022;55.846;37.340;2023-03-14T00:23:39;46803.84;;;-143.51;100.00
44309;BME280;30022;55.846;37.340;2023-03-14T00:26:07;46874.94;;;-143.51;100.00
44309;BME280;30022;55.846;37.340;2023-03-14T00:28:33;46930.22;;;-143.51;100.00
44309;BME280;30022;55.846;37.340;2023-03-14T00:30:58;46874.94;;;-143.51;100.00
44309;BME280;30022;55.846;37.340;2023-03-14T00:33:24;46890.72;;;-143.51;100.00
44309;BME280;30022;55.846;37.340;2023-03-14T00:35:54;46926.28;;;-143.51;100.00
44309;BME280;30022;55.846;37.340;2023-03-14T00:38:19;46869.00;;;-143.51;100.00
44309;BME280;30022;55.846;37.340;2023-03-14T00:40:45;46928.25;;;-143.51;100.00
44309;BME280;30022;55.846;37.340;2023-03-14T00:43:10;46977.63;;;-143.51;100.00
44309;BME280;30022;55.846;37.340;2023-03-14T00:45:36;47009.22;;;-143.51;100.00
44309;BME280;30022;55.846;37.340;2023-03-14T00:48:01;46997.38;;;-143.51;100.00
44309;BME280;30022;55.846;37.340;2023-03-14T00:50:27;47032.94;;;-143.51;100.00
44309;BME280;30022;55.846;37.340;2023-03-14T00:52:53;46965.78;;;-143.51;100.00
44309;BME280;30022;55.846;37.340;2023-03-14T00:55:18;47021.09;;;-143.51;100.00
44309;BME280;30022;55.846;37.340;2023-03-14T00:57:44;47001.34;;;-143.51;100.00
44309;BME280;30022;55.846;37.340;2023-03-14T01:00:10;47005.28;;;-143.51;100.00
44309;BME280;30022;55.846;37.340;2023-03-14T01:02:37;47009.22;;;-143.51;100.00
44309;BME280;30022;55.846;37.340;2023-03-14T01:05:03;47092.19;;;-143.51;100.00
44309;BME280;30022;55.846;37.340;2023-03-14T01:07:29;47165.25;;;-143.51;100.00
44309;BME280;30022;55.846;37.340;2023-03-14T01:09:55;47123.78;;;-143.51;100.00
44309;BME280;30022;55.846;37.340;2023-03-14T01:12:20;47173.16;;;-143.51;100.00
44309;BME280;30022;55.846;37.340;2023-03-14T01:14:46;47246.25;;;-143.51;100.00
44309;BME280;30022;55.846;37.340;2023-03-14T01:17:11;47228.47;;;-143.51;100.00
44309;BME280;30022;55.846;37.340;2023-03-14T01:19:37;47289.69;;;-143.51;100.00
44309;BME280;30022;55.846;37.340;2023-03-14T01:22:03;47323.28;;;-143.51;100.00
44309;BME280;30022;55.846;37.340;2023-03-14T01:24:28;47459.56;;;-143.51;100.00
44309;BME280;30022;55.846;37.340;2023-03-14T01:26:54;47562.28;;;-143.51;100.00
44309;BME280;30022;55.846;37.340;2023-03-14T01:29:22;47676.84;;;-143.51;100.00
44309;BME280;30022;55.846;37.340;2023-03-14T01:31:48;47795.38;;;-143.51;100.00
44309;BME280;30022;55.846;37.340;2023-03-14T01:34:13;48034.41;;;-143.51;100.00
44309;BME280;30022;55.846;37.340;2023-03-14T01:36:39;48190.47;;;-143.51;100.00
44309;BME280;30022;55.846;37.340;2023-03-14T01:39:05;48312.97;;;-143.51;100.00
44309;BME280;30022;55.846;37.340;2023-03-14T01:41:31;48474.97;;;-143.51;100.00
44309;BME280;30022;55.846;37.340;2023-03-14T01:43:58;48862.25;;;-143.51;100.00
44309;BME280;30022;55.846;37.340;2023-03-14T01:46:43;49326.63;;;-143.51;100.00
44309;BME280;30022;55.846;37.340;2023-03-14T01:51:44;50097.41;;;-143.51;100.00
44309;BME280;30022;55.846;37.340;2023-03-14T01:56:41;50548.09;;;-143.51;100.00
44309;BME280;30022;55.846;37.340;2023-03-14T01:59:08;50834.75;;;-143.51;100.00
44309;BME280;30022;55.846;37.340;2023-03-14T02:01:35;51226.19;;;-143.51;100.00
44309;BME280;30022;55.846;37.340;2023-03-14T02:04:02;51465.44;;;-143.51;100.00
44309;BME280;30022;55.846;37.340;2023-03-14T02:06:32;51619.66;;;-143.51;100.00
44309;BME280;30022;55.846;37.340;2023-03-14T02:09:00;51522.78;;;-143.51;100.00
44309;BME280;30022;55.846;37.340;2023-03-14T02:11:30;51724.47;;;-143.51;100.00
44309;BME280;30022;55.846;37.340;2023-03-14T02:14:02;52048.78;;;-143.51;100.00
44309;BME280;30022;55.846;37.340;2023-03-14T02:16:55;53156.38;;;-143.51;100.00
44309;BME280;30022;55.846;37.340;2023-03-14T02:19:49;52802.31;;;-143.51;100.00
44309;BME280;30022;55.846;37.340;2023-03-14T02:22:22;52335.53;;;-143.51;100.00
44309;BME280;30022;55.846;37.340;2023-03-14T02:27:21;53190.00;;;-143.51;100.00
44309;BME280;30022;55.846;37.340;2023-03-14T02:29:49;53631.13;;;-143.51;100.00
44309;BME280;30022;55.846;37.340;2023-03-14T02:32:15;54327.56;;;-143.51;100.00
44309;BME280;30022;55.846;37.340;2023-03-14T02:34:42;55319.03;;;-143.51;100.00
44309;BME280;30022;55.846;37.340;2023-03-14T02:37:08;55251.72;;;-143.51;100.00
44309;BME280;30022;55.846;37.340;2023-03-14T02:39:38;54990.50;;;-143.51;100.00
44309;BME280;30022;55.846;37.340;2023-03-14T02:42:06;54814.38;;;-143.51;100.00
44309;BME280;30022;55.846;37.340;2023-03-14T02:44:31;55966.28;;;-143.51;100.00
44309;BME280;30022;55.846;37.340;2023-03-14T02:46:58;55697.06;;;-143.51;100.00
44309;BME280;30022;55.846;37.340;2023-03-14T02:49:24;54857.91;;;-143.51;100.00
44309;BME280;30022;55.846;37.340;2023-03-14T02:51:50;55453.63;;;-143.51;100.00
44309;BME280;30022;55.846;37.340;2023-03-14T02:54:16;55857.41;;;-143.51;100.00
44309;BME280;30022;55.846;37.340;2023-03-14T02:56:44;55774.25;;;-143.51;100.00
44309;BME280;30022;55.846;37.340;2023-03-14T02:59:11;57021.50;;;-143.51;100.00
44309;BME280;30022;55.846;37.340;2023-03-14T03:02:03;58504.81;;;-143.51;100.00
44309;BME280;30022;55.846;37.340;2023-03-14T03:04:30;58437.47;;;-143.51;100.00
44309;BME280;30022;55.846;37.340;2023-03-14T03:06:56;58718.75;;;-143.51;100.00
44309;BME280;30022;55.846;37.340;2023-03-14T03:09:21;57641.28;;;-143.51;100.00
44309;BME280;30022;55.846;37.340;2023-03-14T03:11:47;57752.19;;;-143.51;100.00
44309;BME280;30022;55.846;37.340;2023-03-14T03:14:18;58651.41;;;-143.51;100.00
44309;BME280;30022;55.846;37.340;2023-03-14T03:16:43;58318.63;;;-143.51;100.00
44309;BME280;30022;55.846;37.340;2023-03-14T03:19:09;58940.63;;;-143.51;100.00
44309;BME280;30022;55.846;37.340;2023-03-14T03:21:34;58930.72;;;-143.51;100.00
44309;BME280;30022;55.846;37.340;2023-03-14T03:24:00;59848.00;;;-143.51;100.00
44309;BME280;30022;55.846;37.340;2023-03-14T03:26:26;59515.13;;;-143.51;100.00
44309;BME280;30022;55.846;37.340;2023-03-14T03:28:51;59503.25;;;-143.51;100.00
44309;BME280;30022;55.846;37.340;2023-03-14T03:31:17;59097.13;;;-143.51;100.00
44309;BME280;30022;55.846;37.340;2023-03-14T03:33:43;60157.13;;;-143.51;100.00
44309;BME280;30022;55.846;37.340;2023-03-14T03:36:09;60523.75;;;-143.51;100.00
44309;BME280;30022;55.846;37.340;2023-03-14T03:38:37;59970.84;;;-143.51;100.00
44309;BME280;30022;55.846;37.340;2023-03-14T03:41:05;59093.16;;;-143.51;100.00
44309;BME280;30022;55.846;37.340;2023-03-14T03:43:31;58867.31;;;-143.51;100.00
44309;BME280;30022;55.846;37.340;2023-03-14T03:46:01;59269.47;;;-143.51;100.00
44309;BME280;30022;55.846;37.340;2023-03-14T03:48:27;61094.53;;;-143.51;100.00
44309;BME280;30022;55.846;37.340;2023-03-14T03:50:53;62541.72;;;-143.51;100.00
44309;BME280;30022;55.846;37.340;2023-03-14T03:53:21;64445.66;;;-143.51;100.00
44309;BME280;30022;55.846;37.340;2023-03-14T03:55:47;64917.81;;;-143.51;100.00
44309;BME280;30022;55.846;37.340;2023-03-14T03:58:13;65217.41;;;-143.51;100.00
44309;BME280;30022;55.846;37.340;2023-03-14T04:00:38;65594.41;;;-143.51;100.00
44309;BME280;30022;55.846;37.340;2023-03-14T04:03:04;65967.47;;;-143.51;100.00
44309;BME280;30022;55.846;37.340;2023-03-14T04:05:30;66233.41;;;-143.51;100.00
44309;BME280;30022;55.846;37.340;2023-03-14T04:08:03;65923.81;;;-143.51;100.00
44309;BME280;30022;55.846;37.340;2023-03-14T04:10:29;66604.53;;;-143.51;100.00
44309;BME280;30022;55.846;37.340;2023-03-14T04:13:09;66475.53;;;-143.51;100.00
44309;BME280;30022;55.846;37.340;2023-03-14T04:15:37;68703.03;;;-143.51;100.00
44309;BME280;30022;55.846;37.340;2023-03-14T04:18:09;68538.22;;;-143.51;100.00
44309;BME280;30022;55.846;37.340;2023-03-14T04:20:34;68593.81;;;-143.51;100.00
44309;BME280;30022;55.846;37.340;2023-03-14T04:23:01;69684.16;;;-143.51;100.00
44309;BME280;30022;55.846;37.340;2023-03-14T04:25:27;69521.28;;;-143.51;100.00
44309;BME280;30022;55.846;37.340;2023-03-14T04:27:55;70733.09;;;-143.51;100.00
44309;BME280;30022;55.846;37.340;2023-03-14T04:30:24;71555.75;;;-143.51;100.00
44309;BME280;30022;55.846;37.340;2023-03-14T04:32:53;72573.38;;;-143.51;100.00
44309;BME280;30022;55.846;37.340;2023-03-14T04:35:20;73082.28;;;-143.51;100.00
44309;BME280;30022;55.846;37.340;2023-03-14T04:37:46;72573.38;;;-143.51;100.00
44309;BME280;30022;55.846;37.340;2023-03-14T04:40:15;73845.75;;;-143.51;100.00
44309;BME280;30022;55.846;37.340;2023-03-14T04:42:41;73591.25;;;-143.51;100.00
44309;BME280;30022;55.846;37.340;2023-03-14T04:45:07;73845.75;;;-143.51;100.00
44309;BME280;30022;55.846;37.340;2023-03-14T04:47:34;72827.81;;;-143.51;100.00
44309;BME280;30022;55.846;37.340;2023-03-14T04:50:00;72318.94;;;-143.51;100.00
44309;BME280;30022;55.846;37.340;2023-03-14T04:52:25;73591.25;;;-143.51;100.00
44309;BME280;30022;55.846;37.340;2023-03-14T04:54:51;74100.28;;;-143.51;100.00
44309;BME280;30022;55.846;37.340;2023-03-14T04:57:18;74354.81;;;-143.51;100.00
44309;BME280;30022;55.846;37.340;2023-03-14T04:59:45;73845.75;;;-143.51;100.00
44309;BME280;30022;55.846;37.340;2023-03-14T05:02:34;72573.38;;;-143.51;100.00
44309;BME280;30022;55.846;37.340;2023-03-14T05:05:29;73591.25;;;-143.51;100.00
44309;BME280;30022;55.846;37.340;2023-03-14T05:08:15;75627.75;;;-143.51;100.00
44309;BME280;30022;55.846;37.340;2023-03-14T05:11:19;74863.94;;;-143.51;100.00
44309;BME280;30022;55.846;37.340;2023-03-14T05:14:14;76391.72;;;-143.51;100.00
44309;BME280;30022;55.846;37.340;2023-03-14T05:17:05;77410.56;;;-143.51;100.00
44309;BME280;30022;55.846;37.340;2023-03-14T05:19:37;76137.06;;;-143.51;100.00
44309;BME280;30022;55.846;37.340;2023-03-14T05:22:15;76646.41;;;-143.51;100.00
44309;BME280;30022;55.846;37.340;2023-03-14T05:25:13;76646.41;;;-143.51;100.00
44309;BME280;30022;55.846;37.340;2023-03-14T05:27:45;75882.41;;;-143.51;100.00
44309;BME280;30022;55.846;37.340;2023-03-14T05:30:30;76391.72;;;-143.51;100.00
44309;BME280;30022;55.846;37.340;2023-03-14T05:33:16;76391.72;;;-143.51;100.00
44309;BME280;30022;55.846;37.340;2023-03-14T05:36:08;77665.31;;;-143.51;100.00
44309;BME280;30022;55.846;37.340;2023-03-14T05:38:54;77155.84;;;-143.51;100.00
44309;BME280;30022;55.846;37.340;2023-03-14T05:41:49;75882.41;;;-143.51;100.00
44309;BME280;30022;55.846;37.340;2023-03-14T05:44:20;76137.06;;;-143.51;100.00
44309;BME280;30022;55.846;37.340;2023-03-14T05:47:09;76646.41;;;-143.51;100.00
44309;BME280;30022;55.846;37.340;2023-03-14T05:50:04;77155.84;;;-143.51;100.00
44309;BME280;30022;55.846;37.340;2023-03-14T05:52:35;77410.56;;;-143.51;100.00
44309;BME280;30022;55.846;37.340;2023-03-14T05:55:27;76646.41;;;-143.51;100.00
44309;BME280;30022;55.846;37.340;2023-03-14T05:58:04;75627.75;;;-143.51;100.00
44309;BME280;30022;55.846;37.340;2023-03-14T06:00:42;77920.09;;;-143.51;100.00
44309;BME280;30022;55.846;37.340;2023-03-14T06:03:21;77155.84;;;-143.51;100.00
44309;BME280;30022;55.846;37.340;2023-03-14T06:05:49;78939.34;;;-143.51;100.00
44309;BME280;30022;55.846;37.340;2023-03-14T06:08:15;79703.94;;;-143.51;100.00
44309;BME280;30022;55.846;37.340;2023-03-14T06:10:41;79703.94;;;-143.51;100.00
44309;BME280;30022;55.846;37.340;2023-03-14T06:13:06;79703.94;;;-143.51;100.00
44309;BME280;30022;55.846;37.340;2023-03-14T06:15:33;78684.50;;;-143.51;100.00
44309;BME280;30022;55.846;37.340;2023-03-14T06:18:00;78174.88;;;-143.51;100.00
44309;BME280;30022;55.846;37.340;2023-03-14T06:20:26;78174.88;;;-143.51;100.00
44309;BME280;30022;55.846;37.340;2023-03-14T06:22:52;77920.09;;;-143.51;100.00
44309;BME280;30022;55.846;37.340;2023-03-14T06:25:18;79449.03;;;-143.51;100.00
44309;BME280;30022;55.846;37.340;2023-03-14T06:27:46;78174.88;;;-143.51;100.00
44309;BME280;30022;55.846;37.340;2023-03-14T06:30:11;78429.69;;;-143.51;100.00
44309;BME280;30022;55.846;37.340;2023-03-14T06:32:37;78429.69;;;-143.51;100.00
44309;BME280;30022;55.846;37.340;2023-03-14T06:35:07;78939.34;;;-143.51;100.00
44309;BME280;30022;55.846;37.340;2023-03-14T06:37:37;77920.09;;;-143.51;100.00
44309;BME280;30022;55.846;37.340;2023-03-14T06:40:02;79703.94;;;-143.51;100.00
44309;BME280;30022;55.846;37.340;2023-03-14T06:42:46;79194.19;;;-143.51;100.00
44309;BME280;30022;55.846;37.340;2023-03-14T06:45:15;79194.19;;;-143.51;100.00
44309;BME280;30022;55.846;37.340;2023-03-14T06:47:40;78684.50;;;-143.51;100.00
44309;BME280;30022;55.846;37.340;2023-03-14T06:50:07;78684.50;;;-143.51;100.00
44309;BME280;30022;55.846;37.340;2023-03-14T06:52:34;77665.31;;;-143.51;100.00
44309;BME280;30022;55.846;37.340;2023-03-14T06:54:59;77410.56;;;-143.51;100.00
44309;BME280;30022;55.846;37.340;2023-03-14T06:57:26;76391.72;;;-143.51;100.00
44309;BME280;30022;55.846;37.340;2023-03-14T06:59:51;77410.56;;;-143.51;100.00
44309;BME280;30022;55.846;37.340;2023-03-14T07:02:17;76137.06;;;-143.51;100.00
44309;BME280;30022;55.846;37.340;2023-03-14T07:04:43;76646.41;;;-143.51;100.00
44309;BME280;30022;55.846;37.340;2023-03-14T07:07:09;77920.09;;;-143.51;100.00
44309;BME280;30022;55.846;37.340;2023-03-14T07:09:34;77665.31;;;-143.51;100.00
44309;BME280;30022;55.846;37.340;2023-03-14T07:12:01;76391.72;;;-143.51;100.00
44309;BME280;30022;55.846;37.340;2023-03-14T07:14:28;75882.41;;;-143.51;100.00
44309;BME280;30022;55.846;37.340;2023-03-14T07:16:54;75373.16;;;-143.51;100.00
44309;BME280;30022;55.846;37.340;2023-03-14T07:19:19;75627.75;;;-143.51;100.00
44309;BME280;30022;55.846;37.340;2023-03-14T07:21:45;76646.41;;;-143.51;100.00
44309;BME280;30022;55.846;37.340;2023-03-14T07:24:13;75882.41;;;-143.51;100.00
44309;BME280;30022;55.846;37.340;2023-03-14T07:26:39;76901.13;;;-143.51;100.00
44309;BME280;30022;55.846;37.340;2023-03-14T07:29:05;76391.72;;;-143.51;100.00
44309;BME280;30022;55.846;37.340;2023-03-14T07:31:31;74609.38;;;-143.51;100.00
44309;BME280;30022;55.846;37.340;2023-03-14T07:34:03;73744.34;;;-143.51;100.00
44309;BME280;30022;55.846;37.340;2023-03-14T07:36:33;74535.78;;;-143.51;100.00
44309;BME280;30022;55.846;37.340;2023-03-14T07:38:59;74283.22;;;-143.51;100.00
44309;BME280;30022;55.846;37.340;2023-03-14T07:41:25;73595.22;;;-143.51;100.00
44309;BME280;30022;55.846;37.340;2023-03-14T07:44:09;75373.16;;;-143.51;100.00
44309;BME280;30022;55.846;37.340;2023-03-14T07:46:35;75627.75;;;-143.51;100.00
44309;BME280;30022;55.846;37.340;2023-03-14T07:49:00;75882.41;;;-143.51;100.00
44309;BME280;30022;55.846;37.340;2023-03-14T07:51:26;74850.03;;;-143.51;100.00
44309;BME280;30022;55.846;37.340;2023-03-14T07:53:51;74863.94;;;-143.51;100.00
44309;BME280;30022;55.846;37.340;2023-03-14T07:56:17;73521.66;;;-143.51;100.00
44309;BME280;30022;55.846;37.340;2023-03-14T07:58:43;73621.06;;;-143.51;100.00
44309;BME280;30022;55.846;37.340;2023-03-14T08:01:08;70482.75;;;-143.51;100.00
44309;BME280;30022;55.846;37.340;2023-03-14T08:03:37;71376.91;;;-143.51;100.00
44309;BME280;30022;55.846;37.340;2023-03-14T08:06:02;72394.47;;;-143.51;100.00
44309;BME280;30022;55.846;37.340;2023-03-14T08:08:28;72380.56;;;-143.51;100.00
44309;BME280;30022;55.846;37.340;2023-03-14T08:11:02;71833.97;;;-143.51;100.00
44309;BME280;30022;55.846;37.340;2023-03-14T08:13:28;71569.66;;;-143.51;100.00
44309;BME280;30022;55.846;37.340;2023-03-14T08:15:54;72328.88;;;-143.51;100.00
44309;BME280;30022;55.846;37.340;2023-03-14T08:18:19;73750.31;;;-143.51;100.00
44309;BME280;30022;55.846;37.340;2023-03-14T08:20:45;74863.94;;;-143.51;100.00
44309;BME280;30022;55.846;37.340;2023-03-14T08:23:10;71802.19;;;-143.51;100.00
44309;BME280;30022;55.846;37.340;2023-03-14T08:25:37;73660.81;;;-143.51;100.00
44309;BME280;30022;55.846;37.340;2023-03-14T08:28:03;72591.25;;;-143.51;100.00
44309;BME280;30022;55.846;37.340;2023-03-14T08:30:29;72432.22;;;-143.51;100.00
44309;BME280;30022;55.846;37.340;2023-03-14T08:32:56;71893.59;;;-143.51;100.00
44309;BME280;30022;55.846;37.340;2023-03-14T08:35:21;73764.22;;;-143.51;100.00
44309;BME280;30022;55.846;37.340;2023-03-14T08:37:47;72112.22;;;-143.51;100.00
44309;BME280;30022;55.846;37.340;2023-03-14T08:40:13;69874.88;;;-143.51;100.00
44309;BME280;30022;55.846;37.340;2023-03-14T08:42:39;71043.06;;;-143.51;100.00
44309;BME280;30022;55.846;37.340;2023-03-14T08:45:05;70071.53;;;-143.51;100.00
44309;BME280;30022;55.846;37.340;2023-03-14T08:47:32;70621.84;;;-143.51;100.00
44309;BME280;30022;55.846;37.340;2023-03-14T08:49:57;69819.25;;;-143.51;100.00
44309;BME280;30022;55.846;37.340;2023-03-14T08:52:23;71357.03;;;-143.51;100.00
44309;BME280;30022;55.846;37.340;2023-03-14T08:54:48;70192.72;;;-143.51;100.00
44309;BME280;30022;55.846;37.340;2023-03-14T08:57:14;72064.53;;;-143.51;100.00
44309;BME280;30022;55.846;37.340;2023-03-14T08:59:40;71774.34;;;-143.51;100.00
44309;BME280;30022;55.846;37.340;2023-03-14T09:02:05;73460.00;;;-143.51;100.00
44309;BME280;30022;55.846;37.340;2023-03-14T09:04:32;70186.75;;;-143.51;100.00
44309;BME280;30022;55.846;37.340;2023-03-14T09:06:58;70735.09;;;-143.51;100.00
44309;BME280;30022;55.846;37.340;2023-03-14T09:09:24;70601.97;;;-143.51;100.00
44309;BME280;30022;55.846;37.340;2023-03-14T09:11:50;72501.81;;;-143.51;100.00
44309;BME280;30022;55.846;37.340;2023-03-14T09:14:15;69868.91;;;-143.51;100.00
44309;BME280;30022;55.846;37.340;2023-03-14T09:16:41;68826.16;;;-143.51;100.00
44309;BME280;30022;55.846;37.340;2023-03-14T09:19:06;67158.34;;;-143.51;100.00
44309;BME280;30022;55.846;37.340;2023-03-14T09:21:32;64965.41;;;-143.51;100.00
44309;BME280;30022;55.846;37.340;2023-03-14T09:23:57;64431.75;;;-143.51;100.00
44309;BME280;30022;55.846;37.340;2023-03-14T09:26:23;65534.88;;;-143.51;100.00
44309;BME280;30022;55.846;37.340;2023-03-14T09:28:49;67380.66;;;-143.51;100.00
44309;BME280;30022;55.846;37.340;2023-03-14T09:31:14;67680.44;;;-143.51;100.00
44309;BME280;30022;55.846;37.340;2023-03-14T09:33:40;67090.84;;;-143.51;100.00
44309;BME280;30022;55.846;37.340;2023-03-14T09:36:06;67035.25;;;-143.51;100.00
44309;BME280;30022;55.846;37.340;2023-03-14T09:38:33;64733.28;;;-143.51;100.00
44309;BME280;30022;55.846;37.340;2023-03-14T09:40:59;66034.94;;;-143.51;100.00
44309;BME280;30022;55.846;37.340;2023-03-14T09:43:25;67626.84;;;-143.51;100.00
44309;BME280;30022;55.846;37.340;2023-03-14T09:45:53;67285.38;;;-143.51;100.00
44309;BME280;30022;55.846;37.340;2023-03-14T09:48:22;64679.72;;;-143.51;100.00
44309;BME280;30022;55.846;37.340;2023-03-14T09:50:53;61239.22;;;-143.51;100.00
44309;BME280;30022;55.846;37.340;2023-03-14T09:53:20;58710.81;;;-143.51;100.00
44309;BME280;30022;55.846;37.340;2023-03-14T09:55:49;58807.88;;;-143.51;100.00
44309;BME280;30022;55.846;37.340;2023-03-14T09:58:22;59372.50;;;-143.51;100.00
44309;BME280;30022;55.846;37.340;2023-03-14T10:00:49;63198.06;;;-143.51;100.00
44309;BME280;30022;55.846;37.340;2023-03-14T10:05:49;58770.25;;;-143.51;100.00
44309;BME280;30022;55.846;37.340;2023-03-14T10:08:15;61033.09;;;-143.51;100.00
44309;BME280;30022;55.846;37.340;2023-03-14T10:10:40;60739.75;;;-143.51;100.00
44309;BME280;30022;55.846;37.340;2023-03-14T10:15:35;63283.34;;;-143.51;100.00
44309;BME280;30022;55.846;37.340;2023-03-14T10:18:02;65393.97;;;-143.51;100.00
44309;BME280;30022;55.846;37.340;2023-03-14T10:20:29;66439.81;;;-143.51;100.00
44309;BME280;30022;55.846;37.340;2023-03-14T10:23:22;66941.97;;;-143.51;100.00
44309;BME280;30022;55.846;37.340;2023-03-14T10:25:45;66856.63;;;-143.51;100.00
44309;BME280;30022;55.846;37.340;2023-03-14T10:30:56;72430.25;;;-143.51;100.00
44309;BME280;30022;55.846;37.340;2023-03-14T10:33:26;74330.94;;;-143.51;100.00
44309;BME280;30022;55.846;37.340;2023-03-14T10:35:56;76391.72;;;-143.51;100.00
44309;BME280;30022;55.846;37.340;2023-03-14T10:38:23;78174.88;;;-143.51;100.00
44309;BME280;30022;55.846;37.340;2023-03-14T10:40:50;78939.34;;;-143.51;100.00
44309;BME280;30022;55.846;37.340;2023-03-14T10:43:25;75623.78;;;-143.51;100.00
44309;BME280;30022;55.846;37.340;2023-03-14T10:45:56;74088.34;;;-143.51;100.00
44309;BME280;30022;55.846;37.340;2023-03-14T10:48:38;76137.06;;;-143.51;100.00
44309;BME280;30022;55.846;37.340;2023-03-14T10:51:10;74844.06;;;-143.51;100.00
44309;BME280;30022;55.846;37.340;2023-03-14T10:56:15;67968.34;;;-143.51;100.00
44309;BME280;30022;55.846;37.340;2023-03-14T10:58:43;66566.81;;;-143.51;100.00
44309;BME280;30022;55.846;37.340;2023-03-14T11:03:37;62335.50;;;-143.51;100.00
44309;BME280;30022;55.846;37.340;2023-03-14T11:06:07;65554.72;;;-143.51;100.00
44309;BME280;30022;55.846;37.340;2023-03-14T11:11:14;58500.84;;;-143.51;100.00
44309;BME280;30022;55.846;37.340;2023-03-14T11:16:22;55469.44;;;-143.51;100.00
44309;BME280;30022;55.846;37.340;2023-03-14T11:18:59;57074.94;;;-143.51;100.00
44309;BME280;30022;55.846;37.340;2023-03-14T11:26:48;53601.47;;;-143.51;100.00
44309;BME280;30022;55.846;37.340;2023-03-14T11:31:54;50862.44;;;-143.51;100.00
44309;BME280;30022;55.846;37.340;2023-03-14T11:34:35;50791.25;;;-143.51;100.00
44309;BME280;30022;55.846;37.340;2023-03-14T11:37:36;52108.09;;;-143.51;100.00
44309;BME280;30022;55.846;37.340;2023-03-14T11:40:16;49549.94;;;-143.51;100.00
44309;BME280;30022;55.846;37.340;2023-03-14T11:42:43;48534.25;;;-143.51;100.00
44309;BME280;30022;55.846;37.340;2023-03-14T11:50:38;47475.38;;;-143.51;100.00
44309;BME280;30022;55.846;37.340;2023-03-14T11:53:08;47631.41;;;-143.51;100.00
44309;BME280;30022;55.846;37.340;2023-03-14T11:55:35;46995.41;;;-143.51;100.00
44309;BME280;30022;55.846;37.340;2023-03-14T11:58:03;46614.25;;;-143.51;100.00
44309;BME280;30022;55.846;37.340;2023-03-14T12:00:35;46555.00;;;-143.51;100.00
44309;BME280;30022;55.846;37.340;2023-03-14T12:05:50;47009.22;;;-143.51;100.00
44309;BME280;30022;55.846;37.340;2023-03-14T12:08:24;46752.47;;;-143.51;100.00
44309;BME280;30022;55.846;37.340;2023-03-14T12:10:58;47082.31;;;-143.51;100.00
44309;BME280;30022;55.846;37.340;2023-03-14T12:13:28;46918.38;;;-143.51;100.00
44309;BME280;30022;55.846;37.340;2023-03-14T12:15:55;46673.50;;;-143.51;100.00
44309;BME280;30022;55.846;37.340;2023-03-14T12:18:40;46894.69;;;-143.51;100.00
44309;BME280;30022;55.846;37.340;2023-03-14T12:21:07;46993.44;;;-143.51;100.00
44309;BME280;30022;55.846;37.340;2023-03-14T12:23:51;46491.81;;;-143.51;100.00
44309;BME280;30022;55.846;37.340;2023-03-14T12:26:18;46823.59;;;-143.51;100.00
44309;BME280;30022;55.846;37.340;2023-03-14T12:34:01;46809.75;;;-143.51;100.00
44309;BME280;30022;55.846;37.340;2023-03-14T12:39:13;47321.28;;;-143.51;100.00
44309;BME280;30022;55.846;37.340;2023-03-14T12:42:09;46624.13;;;-143.51;100.00
44309;BME280;30022;55.846;37.340;2023-03-14T12:47:47;46760.38;;;-143.51;100.00
44309;BME280;30022;55.846;37.340;2023-03-14T12:49:53;46819.63;;;-143.51;100.00
44309;BME280;30022;55.846;37.340;2023-03-14T12:52:30;46547.09;;;-143.51;100.00
44309;BME280;30022;55.846;37.340;2023-03-14T12:55:02;46628.06;;;-143.51;100.00
44309;BME280;30022;55.846;37.340;2023-03-14T13:00:02;46959.84;;;-143.51;100.00
44309;BME280;30022;55.846;37.340;2023-03-14T13:02:42;46870.97;;;-143.51;100.00
44309;BME280;30022;55.846;37.340;2023-03-14T13:05:16;46902.59;;;-143.51;100.00
44309;BME280;30022;55.846;37.340;2023-03-14T13:10:24;46869.00;;;-143.51;100.00
44309;BME280;30022;55.846;37.340;2023-03-14T13:12:51;46513.53;;;-143.51;100.00
44309;BME280;30022;55.846;37.340;2023-03-14T13:17:46;46699.16;;;-143.51;100.00
44309;BME280;30022;55.846;37.340;2023-03-14T13:20:15;46438.50;;;-143.51;100.00
44309;BME280;30022;55.846;37.340;2023-03-14T13:22:45;46444.41;;;-143.51;100.00
44309;BME280;30022;55.846;37.340;2023-03-14T13:25:11;46373.31;;;-143.51;100.00
44309;BME280;30022;55.846;37.340;2023-03-14T13:27:37;46359.50;;;-143.51;100.00
44309;BME280;30022;55.846;37.340;2023-03-14T13:30:15;46487.84;;;-143.51;100.00
44309;BME280;30022;55.846;37.340;2023-03-14T13:32:42;46286.44;;;-143.51;100.00